Tropical Cyclones
[Index]
Main Index Home Page Stock Weather Photos Extreme Storms Discussion Storm News and Storm Chasing Reports Tropical Cyclones / Hurricanes / Typhoons Weather Data and Links Wild Fires / Bushfires Weather Observation Techniques Weather Picture Catalogue Tornado Pictures and Reports Stock Video Footage and DVDs for sale
Season 1972-1973 Tropical Cyclone JESSY Track Map
Season 1972-1973 Summaries: [BoM-AU] [JTWC-AU] [JTWC-SIO] [JTWC-SPAC] [JTWC-SH]
<<- Previous TC | JTWC 1972-1973 Season | Next TC ->>

click for intensity scale information  Lat/long Grid: Show Hide

 Date Labels: Show Hide

Joint Typhoon Warning Centre Cyclone Data

Name: JESSY
Number: 824 / 7322

14 Feb 1973 18:00 UTC to 27 Feb 1973 18:00 UTC

    date/time    lat    long     hPa   cat  kts
1973-02-14 18    8.7    65.0                              
1973-02-15 00    8.8    65.1                              
1973-02-15 06    9.0    64.9                              
1973-02-15 12    9.2    64.6                              
1973-02-15 18    9.5    64.2                              
1973-02-16 00    9.8    63.9                              
1973-02-16 06   10.1    63.6                              
1973-02-16 12   10.7    63.1                              
1973-02-16 18   11.3    62.6                              
1973-02-17 00   12.0    62.2                              
1973-02-17 06   12.6    62.0                              
1973-02-17 12   13.2    62.0                              
1973-02-17 18   13.6    62.2                              
1973-02-18 00   13.8    62.5                              
1973-02-18 06   14.0    62.8                              
1973-02-18 12   14.2    63.1                              
1973-02-18 18   14.4    63.4                              
1973-02-19 00   14.5    63.6                              
1973-02-19 06   14.5    63.8                              
1973-02-19 12   13.8    63.8                              
1973-02-19 18   13.3    63.5                              
1973-02-20 00   13.6    62.7                              
1973-02-20 06   14.0    62.2                              
1973-02-20 12   14.5    62.6                              
1973-02-20 18   15.0    63.0                              
1973-02-21 00   15.5    63.5                              
1973-02-21 06   16.3    63.9                              
1973-02-21 12   17.5    64.0                              
1973-02-21 18   18.7    63.7                              
1973-02-22 00   19.9    63.0                              
1973-02-22 06   21.0    62.4                              
1973-02-22 12   21.5    62.3                              
1973-02-22 18   21.8    62.2                              
1973-02-23 00   22.4    62.0                              
1973-02-23 06   23.0    61.7                              
1973-02-23 12   23.6    61.2                              
1973-02-23 18   24.3    60.8                              
1973-02-24 00   25.0    60.5                              
1973-02-24 06   25.7    60.3                              
1973-02-24 12   26.6    60.1                              
1973-02-24 18   27.6    59.9                              
1973-02-25 00   28.8    59.9                              
1973-02-25 06   29.9    60.1                              
1973-02-25 12   30.9    60.6                              
1973-02-25 18   31.9    61.4                              
1973-02-26 00   33.1    62.5                              
1973-02-26 06   34.1    63.4                              
1973-02-26 12   34.6    63.8                              
1973-02-26 18   35.0    64.2                              
1973-02-27 00   35.5    64.6                              
1973-02-27 06   36.0    65.0                              
1973-02-27 12   36.7    65.8                              
1973-02-27 18   37.6    67.0                              
Winds are 1-min average.

Tropical cyclone tracks developed by Michael Bath using data from the Joint Typhoon Warning Centre Best Tracks and Google Maps.


[Australian Severe Weather index] [Copyright Notice] [Email Contacts] [Search This Site] [Privacy Policy]
Document: tropical_cyclone_jessy.htm Updated: 18 September 2016